sensor_id;sensor_type;location;lat;lon;timestamp;pressure;altitude;pressure_sealevel;temperature;humidity
31285;BME280;56605;51.516;6.742;2023-04-15T00:02:18;100585.16;;;7.70;100.00
31285;BME280;56605;51.516;6.742;2023-04-15T00:04:45;100585.41;;;7.59;100.00
31285;BME280;56605;51.516;6.742;2023-04-15T00:07:10;100574.78;;;7.59;100.00
31285;BME280;56605;51.516;6.742;2023-04-15T00:09:36;100580.59;;;7.63;100.00
31285;BME280;56605;51.516;6.742;2023-04-15T00:12:01;100585.34;;;7.51;100.00
31285;BME280;56605;51.516;6.742;2023-04-15T00:14:26;100578.28;;;7.59;100.00
31285;BME280;56605;51.516;6.742;2023-04-15T00:16:52;100576.06;;;7.36;100.00
31285;BME280;56605;51.516;6.742;2023-04-15T00:19:20;100572.69;;;7.34;100.00
31285;BME280;56605;51.516;6.742;2023-04-15T00:21:45;100579.06;;;7.23;100.00
31285;BME280;56605;51.516;6.742;2023-04-15T00:24:11;100586.56;;;7.10;100.00
31285;BME280;56605;51.516;6.742;2023-04-15T00:26:37;100581.88;;;7.22;100.00
31285;BME280;56605;51.516;6.742;2023-04-15T00:29:03;100580.41;;;7.09;100.00
31285;BME280;56605;51.516;6.742;2023-04-15T00:31:29;100575.72;;;7.03;100.00
31285;BME280;56605;51.516;6.742;2023-04-15T00:33:54;100584.91;;;7.09;100.00
31285;BME280;56605;51.516;6.742;2023-04-15T00:36:20;100584.53;;;7.22;100.00
31285;BME280;56605;51.516;6.742;2023-04-15T00:38:45;100583.16;;;7.18;100.00
31285;BME280;56605;51.516;6.742;2023-04-15T00:41:11;100583.81;;;7.02;100.00
31285;BME280;56605;51.516;6.742;2023-04-15T00:43:36;100577.97;;;6.98;100.00
31285;BME280;56605;51.516;6.742;2023-04-15T00:46:03;100581.25;;;7.10;100.00
31285;BME280;56605;51.516;6.742;2023-04-15T00:48:30;100588.97;;;7.03;100.00
31285;BME280;56605;51.516;6.742;2023-04-15T00:50:56;100584.13;;;6.89;100.00
31285;BME280;56605;51.516;6.742;2023-04-15T00:53:21;100592.50;;;6.94;100.00
31285;BME280;56605;51.516;6.742;2023-04-15T00:55:47;100598.47;;;6.68;100.00
31285;BME280;56605;51.516;6.742;2023-04-15T00:58:13;100593.59;;;6.73;100.00
31285;BME280;56605;51.516;6.742;2023-04-15T01:00:38;100590.84;;;6.93;100.00
31285;BME280;56605;51.516;6.742;2023-04-15T01:03:05;100586.06;;;6.96;100.00
31285;BME280;56605;51.516;6.742;2023-04-15T01:05:30;100589.31;;;6.90;100.00
31285;BME280;56605;51.516;6.742;2023-04-15T01:07:56;100588.06;;;6.94;100.00
31285;BME280;56605;51.516;6.742;2023-04-15T01:10:22;100588.38;;;6.81;100.00
31285;BME280;56605;51.516;6.742;2023-04-15T01:12:47;100585.06;;;6.97;100.00
31285;BME280;56605;51.516;6.742;2023-04-15T01:15:13;100583.97;;;6.72;100.00
31285;BME280;56605;51.516;6.742;2023-04-15T01:17:38;100584.06;;;6.80;100.00
31285;BME280;56605;51.516;6.742;2023-04-15T01:20:04;100591.56;;;6.57;100.00
31285;BME280;56605;51.516;6.742;2023-04-15T01:22:32;100581.84;;;6.38;100.00
31285;BME280;56605;51.516;6.742;2023-04-15T01:25:03;100585.44;;;6.46;100.00
31285;BME280;56605;51.516;6.742;2023-04-15T01:27:30;100586.28;;;6.37;100.00
31285;BME280;56605;51.516;6.742;2023-04-15T01:29:56;100589.22;;;6.34;100.00
31285;BME280;56605;51.516;6.742;2023-04-15T01:32:21;100573.31;;;6.44;100.00
31285;BME280;56605;51.516;6.742;2023-04-15T01:34:46;100581.44;;;6.22;100.00
31285;BME280;56605;51.516;6.742;2023-04-15T01:37:12;100593.31;;;6.18;100.00
31285;BME280;56605;51.516;6.742;2023-04-15T01:39:37;100585.47;;;6.37;100.00
31285;BME280;56605;51.516;6.742;2023-04-15T01:42:03;100589.00;;;6.17;100.00
31285;BME280;56605;51.516;6.742;2023-04-15T01:44:28;100591.06;;;5.94;100.00
31285;BME280;56605;51.516;6.742;2023-04-15T01:46:54;100591.34;;;5.91;100.00
31285;BME280;56605;51.516;6.742;2023-04-15T01:49:19;100588.47;;;6.04;100.00
31285;BME280;56605;51.516;6.742;2023-04-15T01:51:44;100592.50;;;5.98;100.00
31285;BME280;56605;51.516;6.742;2023-04-15T01:54:09;100584.53;;;5.88;100.00
31285;BME280;56605;51.516;6.742;2023-04-15T01:56:35;100588.31;;;6.05;100.00
31285;BME280;56605;51.516;6.742;2023-04-15T01:59:00;100590.00;;;6.06;100.00
31285;BME280;56605;51.516;6.742;2023-04-15T02:01:25;100588.31;;;6.15;100.00
31285;BME280;56605;51.516;6.742;2023-04-15T02:03:51;100583.97;;;5.94;100.00
31285;BME280;56605;51.516;6.742;2023-04-15T02:06:16;100585.34;;;5.99;100.00
31285;BME280;56605;51.516;6.742;2023-04-15T02:08:42;100592.78;;;6.05;100.00
31285;BME280;56605;51.516;6.742;2023-04-15T02:11:07;100586.75;;;5.93;100.00
31285;BME280;56605;51.516;6.742;2023-04-15T02:13:33;100593.03;;;5.92;100.00
31285;BME280;56605;51.516;6.742;2023-04-15T02:15:58;100585.25;;;5.90;100.00
31285;BME280;56605;51.516;6.742;2023-04-15T02:18:23;100586.34;;;5.78;100.00
31285;BME280;56605;51.516;6.742;2023-04-15T02:20:50;100599.31;;;5.81;100.00
31285;BME280;56605;51.516;6.742;2023-04-15T02:23:16;100587.91;;;5.80;100.00
31285;BME280;56605;51.516;6.742;2023-04-15T02:25:41;100593.63;;;5.76;100.00
31285;BME280;56605;51.516;6.742;2023-04-15T02:28:06;100600.44;;;5.68;100.00
31285;BME280;56605;51.516;6.742;2023-04-15T02:30:32;100597.50;;;5.52;100.00
31285;BME280;56605;51.516;6.742;2023-04-15T02:32:59;100604.31;;;5.44;100.00
31285;BME280;56605;51.516;6.742;2023-04-15T02:35:24;100606.25;;;5.32;100.00
31285;BME280;56605;51.516;6.742;2023-04-15T02:37:50;100611.94;;;5.28;100.00
31285;BME280;56605;51.516;6.742;2023-04-15T02:40:16;100615.31;;;5.40;100.00
31285;BME280;56605;51.516;6.742;2023-04-15T02:42:42;100628.28;;;5.43;100.00
31285;BME280;56605;51.516;6.742;2023-04-15T02:45:09;100635.03;;;5.67;100.00
31285;BME280;56605;51.516;6.742;2023-04-15T02:47:34;100627.06;;;5.67;100.00
31285;BME280;56605;51.516;6.742;2023-04-15T02:50:05;100630.44;;;5.79;100.00
31285;BME280;56605;51.516;6.742;2023-04-15T02:52:31;100623.44;;;5.58;100.00
31285;BME280;56605;51.516;6.742;2023-04-15T02:54:56;100627.44;;;5.42;100.00
31285;BME280;56605;51.516;6.742;2023-04-15T02:57:25;100632.47;;;5.36;100.00
31285;BME280;56605;51.516;6.742;2023-04-15T02:59:51;100631.94;;;5.52;100.00
31285;BME280;56605;51.516;6.742;2023-04-15T03:02:17;100636.75;;;5.27;100.00
31285;BME280;56605;51.516;6.742;2023-04-15T03:04:42;100638.19;;;5.00;100.00
31285;BME280;56605;51.516;6.742;2023-04-15T03:07:07;100630.06;;;5.23;100.00
31285;BME280;56605;51.516;6.742;2023-04-15T03:09:32;100647.34;;;5.27;100.00
31285;BME280;56605;51.516;6.742;2023-04-15T03:11:59;100647.38;;;5.46;100.00
31285;BME280;56605;51.516;6.742;2023-04-15T03:14:24;100648.22;;;5.57;100.00
31285;BME280;56605;51.516;6.742;2023-04-15T03:16:49;100654.63;;;5.54;100.00
31285;BME280;56605;51.516;6.742;2023-04-15T03:19:16;100647.94;;;5.50;100.00
31285;BME280;56605;51.516;6.742;2023-04-15T03:21:41;100649.75;;;5.40;100.00
31285;BME280;56605;51.516;6.742;2023-04-15T03:24:06;100656.88;;;5.49;100.00
31285;BME280;56605;51.516;6.742;2023-04-15T03:26:31;100649.34;;;5.64;100.00
31285;BME280;56605;51.516;6.742;2023-04-15T03:28:57;100646.28;;;5.59;100.00
31285;BME280;56605;51.516;6.742;2023-04-15T03:31:23;100656.41;;;5.34;100.00
31285;BME280;56605;51.516;6.742;2023-04-15T03:33:48;100647.06;;;5.30;100.00
31285;BME280;56605;51.516;6.742;2023-04-15T03:36:14;100645.81;;;5.34;100.00
31285;BME280;56605;51.516;6.742;2023-04-15T03:38:40;100648.13;;;5.17;100.00
31285;BME280;56605;51.516;6.742;2023-04-15T03:41:05;100654.75;;;5.33;100.00
31285;BME280;56605;51.516;6.742;2023-04-15T03:43:30;100649.03;;;4.97;100.00
31285;BME280;56605;51.516;6.742;2023-04-15T03:45:56;100660.25;;;5.10;100.00
31285;BME280;56605;51.516;6.742;2023-04-15T03:48:21;100658.00;;;5.15;100.00
31285;BME280;56605;51.516;6.742;2023-04-15T03:50:46;100664.88;;;5.18;100.00
31285;BME280;56605;51.516;6.742;2023-04-15T03:53:12;100671.75;;;4.99;100.00
31285;BME280;56605;51.516;6.742;2023-04-15T03:55:37;100672.31;;;5.03;100.00
31285;BME280;56605;51.516;6.742;2023-04-15T03:58:03;100675.13;;;5.11;100.00
31285;BME280;56605;51.516;6.742;2023-04-15T04:00:28;100674.72;;;5.06;100.00
31285;BME280;56605;51.516;6.742;2023-04-15T04:02:53;100678.63;;;5.12;100.00
31285;BME280;56605;51.516;6.742;2023-04-15T04:05:19;100691.84;;;5.02;100.00
31285;BME280;56605;51.516;6.742;2023-04-15T04:07:44;100678.09;;;5.18;100.00
31285;BME280;56605;51.516;6.742;2023-04-15T04:10:09;100685.66;;;5.23;100.00
31285;BME280;56605;51.516;6.742;2023-04-15T04:12:35;100691.72;;;5.13;100.00
31285;BME280;56605;51.516;6.742;2023-04-15T04:15:00;100693.59;;;5.23;100.00
31285;BME280;56605;51.516;6.742;2023-04-15T04:17:25;100685.28;;;5.06;100.00
31285;BME280;56605;51.516;6.742;2023-04-15T04:19:51;100695.53;;;5.20;100.00
31285;BME280;56605;51.516;6.742;2023-04-15T04:22:16;100691.59;;;5.15;100.00
31285;BME280;56605;51.516;6.742;2023-04-15T04:24:41;100695.06;;;5.15;100.00
31285;BME280;56605;51.516;6.742;2023-04-15T04:27:07;100696.31;;;5.11;100.00
31285;BME280;56605;51.516;6.742;2023-04-15T04:29:32;100688.28;;;5.23;100.00
31285;BME280;56605;51.516;6.742;2023-04-15T04:31:57;100693.41;;;5.14;100.00
31285;BME280;56605;51.516;6.742;2023-04-15T04:34:22;100698.16;;;5.20;100.00
31285;BME280;56605;51.516;6.742;2023-04-15T04:36:48;100696.91;;;5.25;100.00
31285;BME280;56605;51.516;6.742;2023-04-15T04:39:13;100704.84;;;5.15;100.00
31285;BME280;56605;51.516;6.742;2023-04-15T04:41:38;100708.03;;;5.18;100.00
31285;BME280;56605;51.516;6.742;2023-04-15T04:44:04;100715.28;;;5.16;100.00
31285;BME280;56605;51.516;6.742;2023-04-15T04:46:29;100711.09;;;5.14;100.00
31285;BME280;56605;51.516;6.742;2023-04-15T04:48:54;100715.50;;;5.03;100.00
31285;BME280;56605;51.516;6.742;2023-04-15T04:51:20;100718.00;;;5.05;100.00
31285;BME280;56605;51.516;6.742;2023-04-15T04:53:45;100725.47;;;5.21;100.00
31285;BME280;56605;51.516;6.742;2023-04-15T04:56:10;100720.44;;;5.18;100.00
31285;BME280;56605;51.516;6.742;2023-04-15T04:58:36;100724.09;;;4.95;100.00
31285;BME280;56605;51.516;6.742;2023-04-15T05:01:02;100723.28;;;5.05;100.00
31285;BME280;56605;51.516;6.742;2023-04-15T05:03:27;100729.13;;;4.99;100.00
31285;BME280;56605;51.516;6.742;2023-04-15T05:05:53;100728.03;;;5.01;100.00
31285;BME280;56605;51.516;6.742;2023-04-15T05:08:18;100736.25;;;5.08;100.00
31285;BME280;56605;51.516;6.742;2023-04-15T05:10:44;100732.28;;;5.14;100.00
31285;BME280;56605;51.516;6.742;2023-04-15T05:13:09;100731.84;;;5.18;100.00
31285;BME280;56605;51.516;6.742;2023-04-15T05:15:35;100738.09;;;5.07;100.00
31285;BME280;56605;51.516;6.742;2023-04-15T05:18:01;100740.88;;;5.06;100.00
31285;BME280;56605;51.516;6.742;2023-04-15T05:20:26;100746.84;;;5.08;100.00
31285;BME280;56605;51.516;6.742;2023-04-15T05:22:51;100751.19;;;5.09;100.00
31285;BME280;56605;51.516;6.742;2023-04-15T05:25:17;100752.38;;;5.26;100.00
31285;BME280;56605;51.516;6.742;2023-04-15T05:27:42;100756.13;;;5.24;100.00
31285;BME280;56605;51.516;6.742;2023-04-15T05:30:08;100761.44;;;5.24;100.00
31285;BME280;56605;51.516;6.742;2023-04-15T05:32:33;100756.94;;;5.24;100.00
31285;BME280;56605;51.516;6.742;2023-04-15T05:34:58;100773.16;;;5.31;100.00
31285;BME280;56605;51.516;6.742;2023-04-15T05:37:24;100768.13;;;5.28;100.00
31285;BME280;56605;51.516;6.742;2023-04-15T05:39:49;100771.06;;;5.35;100.00
31285;BME280;56605;51.516;6.742;2023-04-15T05:42:15;100769.03;;;5.48;100.00
31285;BME280;56605;51.516;6.742;2023-04-15T05:44:41;100779.25;;;5.53;100.00
31285;BME280;56605;51.516;6.742;2023-04-15T05:47:06;100778.41;;;5.52;100.00
31285;BME280;56605;51.516;6.742;2023-04-15T05:49:32;100782.16;;;5.50;100.00
31285;BME280;56605;51.516;6.742;2023-04-15T05:51:58;100785.81;;;5.58;100.00
31285;BME280;56605;51.516;6.742;2023-04-15T05:54:23;100790.44;;;5.66;100.00
31285;BME280;56605;51.516;6.742;2023-04-15T05:56:49;100791.97;;;5.69;100.00
31285;BME280;56605;51.516;6.742;2023-04-15T05:59:14;100796.63;;;5.77;100.00
31285;BME280;56605;51.516;6.742;2023-04-15T06:01:39;100797.72;;;5.74;100.00
31285;BME280;56605;51.516;6.742;2023-04-15T06:04:05;100806.56;;;5.84;100.00
31285;BME280;56605;51.516;6.742;2023-04-15T06:06:30;100808.50;;;5.92;100.00
31285;BME280;56605;51.516;6.742;2023-04-15T06:08:57;100808.81;;;5.99;100.00
31285;BME280;56605;51.516;6.742;2023-04-15T06:11:22;100816.25;;;6.05;100.00
31285;BME280;56605;51.516;6.742;2023-04-15T06:13:47;100827.72;;;6.16;100.00
31285;BME280;56605;51.516;6.742;2023-04-15T06:16:13;100822.28;;;6.27;100.00
31285;BME280;56605;51.516;6.742;2023-04-15T06:18:38;100826.06;;;6.34;100.00
31285;BME280;56605;51.516;6.742;2023-04-15T06:21:04;100828.44;;;6.57;100.00
31285;BME280;56605;51.516;6.742;2023-04-15T06:23:29;100824.41;;;6.53;100.00
31285;BME280;56605;51.516;6.742;2023-04-15T06:25:55;100833.47;;;6.60;100.00
31285;BME280;56605;51.516;6.742;2023-04-15T06:28:20;100836.53;;;6.85;100.00
31285;BME280;56605;51.516;6.742;2023-04-15T06:30:45;100829.84;;;6.91;100.00
31285;BME280;56605;51.516;6.742;2023-04-15T06:33:11;100836.66;;;7.23;100.00
31285;BME280;56605;51.516;6.742;2023-04-15T06:35:36;100842.94;;;7.22;100.00
31285;BME280;56605;51.516;6.742;2023-04-15T06:38:01;100850.06;;;7.22;100.00
31285;BME280;56605;51.516;6.742;2023-04-15T06:40:27;100847.66;;;7.39;100.00
31285;BME280;56605;51.516;6.742;2023-04-15T06:42:52;100855.69;;;7.57;100.00
31285;BME280;56605;51.516;6.742;2023-04-15T06:45:18;100849.28;;;7.59;100.00
31285;BME280;56605;51.516;6.742;2023-04-15T06:47:43;100851.31;;;7.76;100.00
31285;BME280;56605;51.516;6.742;2023-04-15T06:50:09;100856.28;;;7.89;100.00
31285;BME280;56605;51.516;6.742;2023-04-15T06:52:34;100860.41;;;8.01;100.00
31285;BME280;56605;51.516;6.742;2023-04-15T06:55:00;100854.13;;;8.02;100.00
31285;BME280;56605;51.516;6.742;2023-04-15T06:57:26;100862.28;;;8.19;100.00
31285;BME280;56605;51.516;6.742;2023-04-15T06:59:53;100862.59;;;8.34;100.00
31285;BME280;56605;51.516;6.742;2023-04-15T07:02:19;100859.84;;;8.54;100.00
31285;BME280;56605;51.516;6.742;2023-04-15T07:04:44;100859.09;;;8.61;100.00
31285;BME280;56605;51.516;6.742;2023-04-15T07:07:10;100867.59;;;8.47;100.00
31285;BME280;56605;51.516;6.742;2023-04-15T07:09:36;100870.06;;;8.58;100.00
31285;BME280;56605;51.516;6.742;2023-04-15T07:12:01;100873.94;;;8.64;100.00
31285;BME280;56605;51.516;6.742;2023-04-15T07:14:27;100870.56;;;8.62;100.00
31285;BME280;56605;51.516;6.742;2023-04-15T07:16:53;100881.47;;;8.69;100.00
31285;BME280;56605;51.516;6.742;2023-04-15T07:19:18;100882.44;;;8.86;100.00
31285;BME280;56605;51.516;6.742;2023-04-15T07:21:44;100885.41;;;8.65;100.00
31285;BME280;56605;51.516;6.742;2023-04-15T07:24:09;100891.50;;;8.75;100.00
31285;BME280;56605;51.516;6.742;2023-04-15T07:26:34;100892.31;;;8.75;100.00
31285;BME280;56605;51.516;6.742;2023-04-15T07:29:00;100896.16;;;8.91;100.00
31285;BME280;56605;51.516;6.742;2023-04-15T07:31:25;100890.13;;;9.07;100.00
31285;BME280;56605;51.516;6.742;2023-04-15T07:33:51;100894.00;;;8.95;100.00
31285;BME280;56605;51.516;6.742;2023-04-15T07:36:17;100894.09;;;9.03;100.00
31285;BME280;56605;51.516;6.742;2023-04-15T07:38:43;100904.66;;;8.95;100.00
31285;BME280;56605;51.516;6.742;2023-04-15T07:41:08;100903.88;;;9.21;100.00
31285;BME280;56605;51.516;6.742;2023-04-15T07:43:34;100908.28;;;8.75;100.00
31285;BME280;56605;51.516;6.742;2023-04-15T07:46:00;100906.47;;;8.76;100.00
31285;BME280;56605;51.516;6.742;2023-04-15T07:48:25;100914.16;;;8.61;100.00
31285;BME280;56605;51.516;6.742;2023-04-15T07:50:50;100909.44;;;8.73;100.00
31285;BME280;56605;51.516;6.742;2023-04-15T07:53:16;100913.38;;;8.87;100.00
31285;BME280;56605;51.516;6.742;2023-04-15T07:55:41;100906.66;;;8.93;100.00
31285;BME280;56605;51.516;6.742;2023-04-15T07:58:06;100909.38;;;9.01;100.00
31285;BME280;56605;51.516;6.742;2023-04-15T08:00:31;100906.16;;;8.97;100.00
31285;BME280;56605;51.516;6.742;2023-04-15T08:02:57;100911.47;;;9.16;100.00
31285;BME280;56605;51.516;6.742;2023-04-15T08:05:24;100913.63;;;8.94;100.00
31285;BME280;56605;51.516;6.742;2023-04-15T08:07:50;100920.84;;;9.20;100.00
31285;BME280;56605;51.516;6.742;2023-04-15T08:10:15;100919.72;;;9.22;100.00
31285;BME280;56605;51.516;6.742;2023-04-15T08:12:41;100927.47;;;9.16;100.00
31285;BME280;56605;51.516;6.742;2023-04-15T08:15:07;100923.59;;;9.28;100.00
31285;BME280;56605;51.516;6.742;2023-04-15T08:17:33;100929.56;;;9.30;100.00
31285;BME280;56605;51.516;6.742;2023-04-15T08:19:58;100923.22;;;9.49;100.00
31285;BME280;56605;51.516;6.742;2023-04-15T08:22:24;100922.72;;;9.46;100.00
31285;BME280;56605;51.516;6.742;2023-04-15T08:24:49;100927.50;;;9.69;100.00
31285;BME280;56605;51.516;6.742;2023-04-15T08:27:15;100924.84;;;9.69;100.00
31285;BME280;56605;51.516;6.742;2023-04-15T08:29:40;100930.13;;;9.60;100.00
31285;BME280;56605;51.516;6.742;2023-04-15T08:32:06;100936.09;;;9.54;100.00
31285;BME280;56605;51.516;6.742;2023-04-15T08:34:31;100933.38;;;9.72;100.00
31285;BME280;56605;51.516;6.742;2023-04-15T08:36:57;100932.19;;;10.01;100.00
31285;BME280;56605;51.516;6.742;2023-04-15T08:39:22;100944.91;;;9.55;100.00
31285;BME280;56605;51.516;6.742;2023-04-15T08:41:55;100955.56;;;9.28;100.00
31285;BME280;56605;51.516;6.742;2023-04-15T08:44:35;100953.41;;;9.32;100.00
31285;BME280;56605;51.516;6.742;2023-04-15T08:47:03;100951.28;;;9.35;100.00
31285;BME280;56605;51.516;6.742;2023-04-15T08:49:31;100958.41;;;9.53;100.00
31285;BME280;56605;51.516;6.742;2023-04-15T08:52:00;100953.19;;;9.70;100.00
31285;BME280;56605;51.516;6.742;2023-04-15T08:54:26;100955.56;;;10.08;100.00
31285;BME280;56605;51.516;6.742;2023-04-15T08:56:52;100954.69;;;9.72;100.00
31285;BME280;56605;51.516;6.742;2023-04-15T08:59:20;100962.25;;;9.77;100.00
31285;BME280;56605;51.516;6.742;2023-04-15T09:01:46;100959.97;;;9.64;100.00
31285;BME280;56605;51.516;6.742;2023-04-15T09:04:13;100964.53;;;9.72;100.00
31285;BME280;56605;51.516;6.742;2023-04-15T09:06:39;100965.41;;;9.54;100.00
31285;BME280;56605;51.516;6.742;2023-04-15T09:09:05;100960.22;;;9.79;100.00
31285;BME280;56605;51.516;6.742;2023-04-15T09:11:30;100961.44;;;9.85;100.00
31285;BME280;56605;51.516;6.742;2023-04-15T09:13:55;100974.75;;;9.85;100.00
31285;BME280;56605;51.516;6.742;2023-04-15T09:16:21;100964.63;;;9.88;100.00
31285;BME280;56605;51.516;6.742;2023-04-15T09:18:46;100973.09;;;9.57;100.00
31285;BME280;56605;51.516;6.742;2023-04-15T09:21:13;100978.91;;;9.79;100.00
31285;BME280;56605;51.516;6.742;2023-04-15T09:23:41;100984.16;;;10.24;100.00
31285;BME280;56605;51.516;6.742;2023-04-15T09:26:17;100983.72;;;10.02;100.00
31285;BME280;56605;51.516;6.742;2023-04-15T09:28:43;100982.09;;;9.56;100.00
31285;BME280;56605;51.516;6.742;2023-04-15T09:31:08;100992.75;;;9.38;100.00
31285;BME280;56605;51.516;6.742;2023-04-15T09:33:34;101002.19;;;9.50;100.00
31285;BME280;56605;51.516;6.742;2023-04-15T09:36:03;100999.19;;;9.72;100.00
31285;BME280;56605;51.516;6.742;2023-04-15T09:38:31;100994.53;;;10.00;100.00
31285;BME280;56605;51.516;6.742;2023-04-15T09:40:57;101006.38;;;9.98;100.00
31285;BME280;56605;51.516;6.742;2023-04-15T09:43:36;100999.03;;;10.00;100.00
31285;BME280;56605;51.516;6.742;2023-04-15T09:46:02;101012.06;;;10.03;100.00
31285;BME280;56605;51.516;6.742;2023-04-15T09:48:27;101014.81;;;10.46;100.00
31285;BME280;56605;51.516;6.742;2023-04-15T09:50:59;101015.16;;;10.25;100.00
31285;BME280;56605;51.516;6.742;2023-04-15T09:53:24;101007.91;;;10.09;100.00
31285;BME280;56605;51.516;6.742;2023-04-15T09:55:56;101023.03;;;10.26;100.00
31285;BME280;56605;51.516;6.742;2023-04-15T09:58:30;101010.63;;;10.44;100.00
31285;BME280;56605;51.516;6.742;2023-04-15T10:00:58;101022.38;;;9.98;100.00
31285;BME280;56605;51.516;6.742;2023-04-15T10:03:29;101021.28;;;9.90;100.00
31285;BME280;56605;51.516;6.742;2023-04-15T10:05:56;101026.47;;;9.92;100.00
31285;BME280;56605;51.516;6.742;2023-04-15T10:08:24;101033.50;;;10.20;100.00
31285;BME280;56605;51.516;6.742;2023-04-15T10:10:50;101027.91;;;10.05;100.00
31285;BME280;56605;51.516;6.742;2023-04-15T10:13:19;101032.28;;;10.40;100.00
31285;BME280;56605;51.516;6.742;2023-04-15T10:15:59;101027.94;;;10.13;100.00
31285;BME280;56605;51.516;6.742;2023-04-15T10:18:31;101039.91;;;10.35;100.00
31285;BME280;56605;51.516;6.742;2023-04-15T10:20:59;101040.66;;;10.81;100.00
31285;BME280;56605;51.516;6.742;2023-04-15T10:23:25;101037.69;;;10.92;100.00
31285;BME280;56605;51.516;6.742;2023-04-15T10:25:52;101055.44;;;10.40;100.00
31285;BME280;56605;51.516;6.742;2023-04-15T10:28:20;101053.22;;;10.00;100.00
31285;BME280;56605;51.516;6.742;2023-04-15T10:30:47;101046.22;;;9.99;100.00
31285;BME280;56605;51.516;6.742;2023-04-15T10:33:16;101046.16;;;10.18;100.00
31285;BME280;56605;51.516;6.742;2023-04-15T10:35:44;101056.38;;;10.31;100.00
31285;BME280;56605;51.516;6.742;2023-04-15T10:38:34;101054.13;;;10.09;100.00
31285;BME280;56605;51.516;6.742;2023-04-15T10:43:55;101062.28;;;10.43;100.00
31285;BME280;56605;51.516;6.742;2023-04-15T10:46:39;101057.22;;;10.49;100.00
31285;BME280;56605;51.516;6.742;2023-04-15T10:49:16;101060.38;;;10.26;100.00
31285;BME280;56605;51.516;6.742;2023-04-15T10:51:43;101062.03;;;10.01;100.00
31285;BME280;56605;51.516;6.742;2023-04-15T10:54:30;101067.78;;;9.88;100.00
31285;BME280;56605;51.516;6.742;2023-04-15T10:59:24;101065.72;;;10.00;100.00
31285;BME280;56605;51.516;6.742;2023-04-15T11:01:59;101071.16;;;9.90;100.00
31285;BME280;56605;51.516;6.742;2023-04-15T11:04:56;101073.88;;;9.98;100.00
31285;BME280;56605;51.516;6.742;2023-04-15T11:07:39;101070.72;;;9.76;100.00
31285;BME280;56605;51.516;6.742;2023-04-15T11:12:45;101085.28;;;10.09;100.00
31285;BME280;56605;51.516;6.742;2023-04-15T11:15:40;101075.94;;;9.86;100.00
31285;BME280;56605;51.516;6.742;2023-04-15T11:20:36;101073.25;;;10.31;100.00
31285;BME280;56605;51.516;6.742;2023-04-15T11:23:01;101081.94;;;10.07;100.00
31285;BME280;56605;51.516;6.742;2023-04-15T11:25:29;101087.91;;;10.27;100.00
31285;BME280;56605;51.516;6.742;2023-04-15T11:27:55;101085.56;;;10.50;100.00
31285;BME280;56605;51.516;6.742;2023-04-15T11:30:24;101096.09;;;10.34;100.00
31285;BME280;56605;51.516;6.742;2023-04-15T11:32:53;101090.38;;;10.73;100.00
31285;BME280;56605;51.516;6.742;2023-04-15T11:35:19;101097.81;;;10.61;100.00
31285;BME280;56605;51.516;6.742;2023-04-15T11:37:45;101099.09;;;10.57;100.00
31285;BME280;56605;51.516;6.742;2023-04-15T11:40:11;101103.28;;;10.95;100.00
31285;BME280;56605;51.516;6.742;2023-04-15T11:42:37;101104.78;;;10.89;100.00
31285;BME280;56605;51.516;6.742;2023-04-15T11:45:20;101110.06;;;10.46;100.00
31285;BME280;56605;51.516;6.742;2023-04-15T11:47:46;101111.75;;;10.47;100.00
31285;BME280;56605;51.516;6.742;2023-04-15T11:50:17;101106.78;;;10.34;100.00
31285;BME280;56605;51.516;6.742;2023-04-15T11:53:00;101112.34;;;10.40;100.00
31285;BME280;56605;51.516;6.742;2023-04-15T11:55:26;101114.44;;;10.28;100.00
31285;BME280;56605;51.516;6.742;2023-04-15T11:58:15;101113.41;;;10.48;100.00
31285;BME280;56605;51.516;6.742;2023-04-15T12:00:46;101123.50;;;10.36;100.00
31285;BME280;56605;51.516;6.742;2023-04-15T12:11:20;101129.59;;;10.28;100.00
31285;BME280;56605;51.516;6.742;2023-04-15T12:13:54;101133.47;;;10.34;100.00
31285;BME280;56605;51.516;6.742;2023-04-15T12:16:21;101131.06;;;10.75;100.00
31285;BME280;56605;51.516;6.742;2023-04-15T12:18:51;101135.75;;;10.02;100.00
31285;BME280;56605;51.516;6.742;2023-04-15T12:21:33;101142.69;;;9.95;100.00
31285;BME280;56605;51.516;6.742;2023-04-15T12:24:03;101140.00;;;10.13;100.00
31285;BME280;56605;51.516;6.742;2023-04-15T12:26:33;101143.72;;;10.20;100.00
31285;BME280;56605;51.516;6.742;2023-04-15T12:29:04;101152.38;;;10.40;100.00
31285;BME280;56605;51.516;6.742;2023-04-15T12:31:31;101154.19;;;10.58;100.00
31285;BME280;56605;51.516;6.742;2023-04-15T12:33:57;101163.88;;;10.41;100.00
31285;BME280;56605;51.516;6.742;2023-04-15T12:36:23;101152.06;;;10.44;100.00
31285;BME280;56605;51.516;6.742;2023-04-15T12:38:49;101157.03;;;10.57;100.00
31285;BME280;56605;51.516;6.742;2023-04-15T12:41:14;101161.63;;;10.73;100.00
31285;BME280;56605;51.516;6.742;2023-04-15T12:43:40;101160.91;;;10.44;100.00
31285;BME280;56605;51.516;6.742;2023-04-15T12:46:06;101165.03;;;10.38;100.00
31285;BME280;56605;51.516;6.742;2023-04-15T12:48:33;101182.06;;;10.19;100.00
31285;BME280;56605;51.516;6.742;2023-04-15T12:50:58;101181.09;;;10.02;100.00
31285;BME280;56605;51.516;6.742;2023-04-15T12:53:24;101176.47;;;9.86;100.00
31285;BME280;56605;51.516;6.742;2023-04-15T12:55:50;101191.47;;;10.05;100.00
31285;BME280;56605;51.516;6.742;2023-04-15T12:58:15;101191.31;;;10.07;100.00
31285;BME280;56605;51.516;6.742;2023-04-15T13:00:41;101200.22;;;10.15;100.00
31285;BME280;56605;51.516;6.742;2023-04-15T13:03:07;101200.59;;;10.21;100.00
31285;BME280;56605;51.516;6.742;2023-04-15T13:05:32;101195.75;;;9.98;100.00